Time;durP1;ratioP1;P1;durP2;ratioP2;P2;SDS_P1;SDS_P2;PMS_P1;PMS_P2;Temp;Humidity;BMP_temperature;BMP_pressure;BME280_temperature;BME280_humidity;BME280_pressure;Samples;Min_cycle;Max_cycle;Signal;HPM_P1;HPM_P2
2023/03/16 00:00:51;;;;;;;2.77;1.90;;;2.70;99.90;;;;;;5074219;28;20195;-46
2023/03/16 00:03:19;;;;;;;8.30;1.93;;;2.70;99.90;;;;;;5074458;28;20571;-46
2023/03/16 00:05:46;;;;;;;3.47;2.07;;;2.70;99.90;;;;;;5073959;28;20172;-49
2023/03/16 00:08:12;;;;;;;5.10;2.23;;;2.70;99.90;;;;;;5074329;28;20184;-47
2023/03/16 00:10:38;;;;;;;4.13;2.10;;;2.70;99.90;;;;;;5074285;28;20211;-47
2023/03/16 00:13:03;;;;;;;3.30;1.97;;;2.70;99.90;;;;;;5074094;28;20543;-46
2023/03/16 00:15:29;;;;;;;2.80;2.07;;;2.70;99.90;;;;;;5073926;28;20657;-46
2023/03/16 00:17:54;;;;;;;2.10;1.57;;;2.70;99.90;;;;;;5074144;28;20664;-47
2023/03/16 00:20:21;;;;;;;2.77;2.13;;;2.80;99.90;;;;;;5073830;28;20732;-48
2023/03/16 00:22:47;;;;;;;2.97;2.10;;;2.80;99.90;;;;;;5073877;28;20171;-48
2023/03/16 00:25:13;;;;;;;5.33;2.60;;;2.80;99.90;;;;;;5073987;28;20608;-47
2023/03/16 00:27:40;;;;;;;4.07;2.13;;;2.90;99.90;;;;;;5073746;28;20270;-47
2023/03/16 00:30:06;;;;;;;4.00;2.30;;;2.80;99.90;;;;;;5073730;28;20175;-49
2023/03/16 00:32:36;;;;;;;4.60;2.30;;;2.80;99.90;;;;;;5072621;28;20163;-50
2023/03/16 00:35:03;;;;;;;4.70;2.40;;;2.80;99.90;;;;;;5073712;28;20180;-50
2023/03/16 00:37:31;;;;;;;2.80;2.10;;;2.80;99.90;;;;;;5073500;28;20211;-50
2023/03/16 00:39:57;;;;;;;3.43;2.30;;;2.80;99.90;;;;;;5073557;28;20585;-51
2023/03/16 00:42:26;;;;;;;2.90;2.23;;;2.80;99.90;;;;;;5073642;28;20218;-49
2023/03/16 00:44:56;;;;;;;5.50;1.90;;;2.70;99.90;;;;;;5073581;28;20199;-50
2023/03/16 00:47:23;;;;;;;3.47;1.80;;;2.80;99.90;;;;;;5073557;28;20541;-48
2023/03/16 00:49:49;;;;;;;3.30;2.20;;;2.80;99.90;;;;;;5072359;28;20190;-50
2023/03/16 00:52:15;;;;;;;3.27;2.30;;;2.90;99.90;;;;;;5073743;28;20203;-49
2023/03/16 00:54:42;;;;;;;3.03;2.10;;;2.90;99.90;;;;;;5073491;28;20178;-49
2023/03/16 00:57:10;;;;;;;3.07;2.40;;;3.00;99.90;;;;;;5073637;28;20281;-49
2023/03/16 00:59:36;;;;;;;3.37;2.03;;;3.00;99.90;;;;;;5072413;28;20198;-48
2023/03/16 01:02:04;;;;;;;3.30;2.40;;;3.00;99.90;;;;;;5073370;28;20191;-49
2023/03/16 01:04:29;;;;;;;2.93;1.83;;;3.00;99.90;;;;;;5073405;28;20228;-50
2023/03/16 01:06:55;;;;;;;3.57;2.40;;;3.10;99.90;;;;;;5073550;28;20338;-49
2023/03/16 01:09:20;;;;;;;4.23;2.00;;;3.10;99.90;;;;;;5073347;28;20318;-51
2023/03/16 01:11:52;;;;;;;3.43;2.23;;;3.10;99.90;;;;;;5074124;28;20232;-48
2023/03/16 01:14:18;;;;;;;2.77;2.17;;;3.10;99.90;;;;;;5073578;28;20164;-49
2023/03/16 01:16:44;;;;;;;7.63;2.30;;;3.10;99.90;;;;;;5075025;28;20257;-50
2023/03/16 01:19:11;;;;;;;4.87;2.20;;;3.10;99.90;;;;;;5077664;28;20183;-50
2023/03/16 01:21:38;;;;;;;2.40;1.90;;;3.10;99.90;;;;;;5077374;28;20199;-48
2023/03/16 01:24:04;;;;;;;7.40;2.47;;;3.10;99.90;;;;;;5077478;28;20167;-49
2023/03/16 01:26:29;;;;;;;3.20;2.40;;;3.10;99.90;;;;;;5077521;28;20176;-49
2023/03/16 01:28:55;;;;;;;5.03;2.47;;;3.10;99.90;;;;;;5077226;28;20183;-50
2023/03/16 01:31:21;;;;;;;9.60;2.90;;;3.10;99.90;;;;;;5077061;28;20225;-49
2023/03/16 01:33:47;;;;;;;2.47;2.17;;;3.00;99.90;;;;;;5077115;28;20182;-50
2023/03/16 01:36:15;;;;;;;3.07;2.60;;;3.10;99.90;;;;;;5077525;28;20251;-47
2023/03/16 01:38:41;;;;;;;3.63;2.10;;;3.00;99.90;;;;;;5077023;28;20172;-50
2023/03/16 01:41:08;;;;;;;2.23;1.97;;;3.00;99.90;;;;;;5077008;28;20271;-51
2023/03/16 01:43:36;;;;;;;3.33;2.50;;;3.00;99.90;;;;;;5077202;28;20176;-50
2023/03/16 01:46:04;;;;;;;4.80;2.93;;;3.00;99.90;;;;;;5076980;28;20653;-50
2023/03/16 01:48:36;;;;;;;3.83;2.40;;;3.00;99.90;;;;;;5077267;28;20175;-50
2023/03/16 01:51:24;;;;;;;4.23;2.37;;;3.00;99.90;;;;;;5075693;28;20663;-50
2023/03/16 01:53:56;;;;;;;4.60;2.37;;;3.00;99.90;;;;;;5076819;28;20171;-49
2023/03/16 01:56:28;;;;;;;2.33;1.83;;;3.00;99.90;;;;;;5076637;28;20240;-51
2023/03/16 01:58:57;;;;;;;4.27;2.37;;;2.90;99.90;;;;;;5076791;28;20171;-49
2023/03/16 02:01:27;;;;;;;4.77;2.23;;;2.90;99.90;;;;;;5076665;28;20559;-48
2023/03/16 02:04:01;;;;;;;3.77;2.37;;;3.00;99.90;;;;;;5076857;28;20627;-49
2023/03/16 02:06:28;;;;;;;3.00;2.00;;;3.00;99.90;;;;;;5076724;28;20176;-49
2023/03/16 02:08:55;;;;;;;7.40;2.47;;;2.90;99.90;;;;;;5076412;28;20178;-49
2023/03/16 02:11:22;;;;;;;2.97;2.17;;;2.90;99.90;;;;;;5076599;28;20199;-48
2023/03/16 02:13:48;;;;;;;4.77;2.47;;;3.00;99.90;;;;;;5076584;28;20175;-48
2023/03/16 02:16:18;;;;;;;3.43;2.10;;;2.90;99.90;;;;;;5076237;28;20259;-50
2023/03/16 02:18:47;;;;;;;5.50;2.63;;;2.90;99.90;;;;;;5076535;28;20186;-48
2023/03/16 02:21:33;;;;;;;3.37;2.33;;;2.90;99.90;;;;;;5076364;28;20199;-50
2023/03/16 02:24:01;;;;;;;3.47;2.10;;;2.90;99.90;;;;;;5076442;28;20202;-51
2023/03/16 02:26:29;;;;;;;4.47;2.53;;;2.90;99.90;;;;;;5074834;28;20182;-50
2023/03/16 02:29:24;;;;;;;5.73;2.60;;;2.90;99.90;;;;;;5076317;28;20606;-48
2023/03/16 02:31:51;;;;;;;4.30;2.03;;;2.90;99.90;;;;;;5058383;28;20572;-49
2023/03/16 02:34:18;;;;;;;2.90;2.40;;;2.90;99.90;;;;;;5075995;28;20639;-49
2023/03/16 02:36:46;;;;;;;6.00;2.50;;;3.00;99.90;;;;;;5074536;28;20249;-49
2023/03/16 02:39:12;;;;;;;1.37;1.27;;;3.00;99.90;;;;;;5075957;28;20583;-50
2023/03/16 02:41:38;;;;;;;6.90;2.60;;;3.00;99.90;;;;;;5075754;28;20227;-49
2023/03/16 02:44:14;;;;;;;3.13;1.90;;;3.00;99.90;;;;;;5074588;28;20180;-48
2023/03/16 02:46:42;;;;;;;4.00;2.30;;;3.00;99.90;;;;;;5076057;28;20654;-49
2023/03/16 02:49:38;;;;;;;4.87;2.50;;;3.00;99.90;;;;;;5076018;28;20279;-49
2023/03/16 02:52:07;;;;;;;4.30;1.97;;;3.00;99.90;;;;;;5075132;28;20204;-48
2023/03/16 02:54:33;;;;;;;3.60;2.50;;;3.10;99.90;;;;;;5075669;28;20225;-49
2023/03/16 02:56:58;;;;;;;5.60;2.23;;;3.10;99.90;;;;;;5075537;28;20282;-50
2023/03/16 02:59:24;;;;;;;2.60;2.10;;;3.20;99.90;;;;;;5075761;28;20643;-49
2023/03/16 03:01:50;;;;;;;7.93;2.40;;;3.20;99.90;;;;;;5075360;28;20196;-50
2023/03/16 03:04:16;;;;;;;2.13;1.53;;;3.20;99.90;;;;;;5075711;28;20548;-50
2023/03/16 03:06:42;;;;;;;2.10;1.90;;;3.20;99.90;;;;;;5075416;28;20176;-50
2023/03/16 03:09:10;;;;;;;2.73;1.90;;;3.20;99.90;;;;;;5075337;28;20632;-50
2023/03/16 03:11:36;;;;;;;4.63;2.27;;;3.20;99.90;;;;;;5075465;28;20215;-49
2023/03/16 03:14:02;;;;;;;3.03;2.37;;;3.30;99.90;;;;;;5075269;28;20179;-49
2023/03/16 03:16:28;;;;;;;2.03;1.77;;;3.30;99.90;;;;;;5073843;28;20635;-49
2023/03/16 03:18:53;;;;;;;2.53;2.17;;;3.20;99.90;;;;;;5075077;28;20183;-51
2023/03/16 03:21:19;;;;;;;2.40;2.10;;;3.30;99.90;;;;;;5075237;28;20192;-49
2023/03/16 03:23:45;;;;;;;3.03;2.00;;;3.20;99.90;;;;;;5075051;28;20174;-49
2023/03/16 03:26:14;;;;;;;2.40;2.20;;;3.20;99.90;;;;;;5075093;28;20171;-50
2023/03/16 03:28:40;;;;;;;3.87;2.17;;;3.20;99.90;;;;;;5075218;28;20224;-50
2023/03/16 03:31:06;;;;;;;2.93;2.53;;;3.20;99.90;;;;;;5074797;28;20626;-50
2023/03/16 03:33:32;;;;;;;2.97;2.10;;;3.20;99.90;;;;;;5075191;28;20198;-50
2023/03/16 03:35:59;;;;;;;5.33;2.23;;;3.20;99.90;;;;;;5073483;28;20663;-50
2023/03/16 03:38:25;;;;;;;3.40;2.23;;;3.10;99.90;;;;;;5074474;28;20659;-50
2023/03/16 03:40:51;;;;;;;2.20;2.00;;;3.10;99.90;;;;;;5074422;28;20736;-50
2023/03/16 03:43:18;;;;;;;2.53;2.33;;;3.10;99.90;;;;;;5074622;28;20183;-50
2023/03/16 03:45:43;;;;;;;3.20;2.47;;;3.20;99.90;;;;;;5074597;28;20643;-50
2023/03/16 03:48:09;;;;;;;2.83;2.20;;;3.10;99.90;;;;;;5074676;28;20239;-47
2023/03/16 03:50:37;;;;;;;3.77;2.40;;;3.10;99.90;;;;;;5074442;28;20199;-49
2023/03/16 03:53:03;;;;;;;5.13;2.43;;;3.10;99.90;;;;;;5074465;28;20182;-46
2023/03/16 03:55:28;;;;;;;3.87;2.50;;;3.10;99.90;;;;;;5073499;28;20270;-46
2023/03/16 03:57:54;;;;;;;3.57;2.50;;;3.10;99.90;;;;;;5074279;28;20206;-48
2023/03/16 04:00:20;;;;;;;3.33;2.30;;;3.10;99.90;;;;;;5074159;28;20241;-47
2023/03/16 04:02:46;;;;;;;3.27;2.30;;;3.10;99.90;;;;;;5072957;28;20648;-45
2023/03/16 04:05:12;;;;;;;6.40;2.00;;;3.10;99.90;;;;;;5074732;28;20182;-45
2023/03/16 04:07:37;;;;;;;4.10;2.20;;;3.10;99.90;;;;;;5074164;28;20171;-46
2023/03/16 04:10:04;;;;;;;3.77;2.33;;;3.10;99.90;;;;;;5074385;28;20285;-47
2023/03/16 04:12:30;;;;;;;8.50;2.10;;;3.20;99.90;;;;;;5074133;28;20252;-46
2023/03/16 04:14:55;;;;;;;3.00;2.10;;;3.20;99.90;;;;;;5073975;28;20642;-46
2023/03/16 04:17:22;;;;;;;4.20;2.60;;;3.20;99.90;;;;;;5074227;28;20203;-47
2023/03/16 04:19:48;;;;;;;4.83;2.20;;;3.30;99.90;;;;;;5074626;28;20205;-47
2023/03/16 04:22:13;;;;;;;6.90;2.60;;;3.30;99.90;;;;;;5074124;28;20195;-46
2023/03/16 04:24:39;;;;;;;2.97;1.97;;;3.30;99.90;;;;;;5073880;28;20179;-46
2023/03/16 04:27:05;;;;;;;9.03;2.50;;;3.30;99.90;;;;;;5074430;28;20268;-46
2023/03/16 04:29:30;;;;;;;3.67;1.90;;;3.30;99.90;;;;;;5074091;28;20305;-47
2023/03/16 04:31:56;;;;;;;7.60;2.73;;;3.40;99.90;;;;;;5073973;28;20199;-47
2023/03/16 04:34:23;;;;;;;3.83;2.17;;;3.40;99.90;;;;;;5073729;28;20214;-47
2023/03/16 04:36:53;;;;;;;3.50;2.10;;;3.50;99.90;;;;;;5072154;28;20215;-47
2023/03/16 04:39:20;;;;;;;2.53;2.17;;;3.50;99.90;;;;;;5073984;28;20233;-47
2023/03/16 04:41:46;;;;;;;4.50;2.43;;;3.50;99.90;;;;;;5073790;28;20253;-47
2023/03/16 04:44:12;;;;;;;4.37;2.47;;;3.50;99.90;;;;;;5072337;28;20175;-48
2023/03/16 04:46:38;;;;;;;5.00;2.47;;;3.50;99.90;;;;;;5073613;28;20215;-46
2023/03/16 04:49:04;;;;;;;4.90;2.50;;;3.50;99.90;;;;;;5073561;28;20176;-46
2023/03/16 04:51:30;;;;;;;3.17;2.33;;;3.50;99.90;;;;;;5072579;28;20218;-48
2023/03/16 04:53:55;;;;;;;3.03;2.50;;;3.50;99.90;;;;;;5073488;28;20179;-47
2023/03/16 04:56:22;;;;;;;4.60;2.57;;;3.50;99.90;;;;;;5073337;28;20167;-47
2023/03/16 04:58:49;;;;;;;8.23;2.37;;;3.50;99.90;;;;;;5073718;28;20175;-47
2023/03/16 05:01:16;;;;;;;2.70;2.37;;;3.50;99.90;;;;;;5073554;28;20191;-48
2023/03/16 05:03:42;;;;;;;7.17;2.60;;;3.50;99.90;;;;;;5073627;28;20180;-47
2023/03/16 05:06:08;;;;;;;5.50;2.53;;;3.50;99.90;;;;;;5073357;28;20195;-49
2023/03/16 05:08:34;;;;;;;3.70;2.23;;;3.50;99.90;;;;;;5073321;28;20258;-49
2023/03/16 05:11:00;;;;;;;3.07;2.30;;;3.40;99.90;;;;;;5073218;28;20187;-50
2023/03/16 05:13:26;;;;;;;5.27;2.50;;;3.40;99.90;;;;;;5073761;28;20185;-49
2023/03/16 05:15:52;;;;;;;2.80;2.13;;;3.40;99.90;;;;;;5073323;28;20536;-50
2023/03/16 05:18:18;;;;;;;4.63;2.70;;;3.40;99.90;;;;;;5073318;28;20199;-50
2023/03/16 05:20:44;;;;;;;7.57;3.07;;;3.40;99.90;;;;;;5073479;28;20203;-49
2023/03/16 05:23:10;;;;;;;5.20;3.23;;;3.40;99.90;;;;;;5073272;28;20635;-49
2023/03/16 05:25:36;;;;;;;4.17;2.80;;;3.40;99.90;;;;;;5073432;28;20301;-51
2023/03/16 05:28:02;;;;;;;6.17;2.73;;;3.30;99.90;;;;;;5073375;28;20263;-51
2023/03/16 05:30:29;;;;;;;3.50;2.40;;;3.30;99.90;;;;;;5073049;28;20218;-51
2023/03/16 05:32:56;;;;;;;5.50;2.70;;;3.30;99.90;;;;;;5073122;28;20324;-51
2023/03/16 05:35:22;;;;;;;4.20;2.93;;;3.30;99.90;;;;;;5073167;28;20258;-49
2023/03/16 05:37:48;;;;;;;3.50;2.83;;;3.30;99.90;;;;;;5072921;28;20214;-53
2023/03/16 05:40:17;;;;;;;3.83;2.20;;;3.30;99.90;;;;;;5073164;28;20536;-51
2023/03/16 05:42:44;;;;;;;3.83;2.63;;;3.20;99.90;;;;;;5072986;28;20172;-50
2023/03/16 05:45:11;;;;;;;6.27;3.33;;;3.20;99.90;;;;;;5073051;28;20176;-51
2023/03/16 05:47:37;;;;;;;4.23;2.97;;;3.20;99.90;;;;;;5073157;28;20179;-47
2023/03/16 05:50:04;;;;;;;4.37;2.77;;;3.20;99.90;;;;;;5072980;28;20640;-46
2023/03/16 05:52:30;;;;;;;5.80;2.47;;;3.20;99.90;;;;;;5073069;28;20182;-48
2023/03/16 05:54:56;;;;;;;3.93;2.70;;;3.20;99.90;;;;;;5073202;28;20186;-45
2023/03/16 05:57:22;;;;;;;7.50;2.50;;;3.20;99.90;;;;;;5073083;28;20671;-48
2023/03/16 05:59:48;;;;;;;4.13;2.80;;;3.20;99.90;;;;;;5073093;28;20180;-47
2023/03/16 06:02:13;;;;;;;5.47;2.73;;;3.30;99.90;;;;;;5073659;28;20274;-47
2023/03/16 06:04:39;;;;;;;3.27;2.60;;;3.30;99.90;;;;;;5076507;28;20182;-47
2023/03/16 06:07:05;;;;;;;5.67;3.17;;;3.30;99.90;;;;;;5077343;28;20171;-46
2023/03/16 06:09:31;;;;;;;8.47;2.47;;;3.40;99.90;;;;;;5076407;28;20670;-46
2023/03/16 06:11:57;;;;;;;5.13;2.63;;;3.30;99.90;;;;;;5076560;28;20619;-46
2023/03/16 06:14:23;;;;;;;2.87;2.37;;;3.40;99.90;;;;;;5076394;28;20180;-45
2023/03/16 06:16:49;;;;;;;4.77;2.70;;;3.40;99.90;;;;;;5076483;28;20215;-47
2023/03/16 06:19:15;;;;;;;3.67;2.40;;;3.40;99.90;;;;;;5076525;28;20176;-46
2023/03/16 06:21:40;;;;;;;4.23;2.30;;;3.50;99.90;;;;;;5076229;28;20192;-47
2023/03/16 06:24:08;;;;;;;8.40;3.03;;;3.50;99.90;;;;;;5076164;28;20178;-46
2023/03/16 06:26:34;;;;;;;4.27;2.97;;;3.50;99.90;;;;;;5076157;28;20168;-48
2023/03/16 06:28:59;;;;;;;6.10;3.37;;;3.60;99.90;;;;;;5074862;28;20661;-45
2023/03/16 06:31:25;;;;;;;4.20;2.53;;;3.60;99.90;;;;;;5076054;28;20282;-49
2023/03/16 06:33:51;;;;;;;2.97;2.17;;;3.60;99.90;;;;;;5076278;28;20203;-47
2023/03/16 06:36:16;;;;;;;4.33;2.90;;;3.60;99.90;;;;;;5075738;28;20199;-47
2023/03/16 06:38:42;;;;;;;4.47;2.77;;;3.60;99.90;;;;;;5075965;28;20172;-48
2023/03/16 06:41:08;;;;;;;5.23;2.67;;;3.70;99.90;;;;;;5074985;28;20202;-46
2023/03/16 06:43:33;;;;;;;7.20;2.60;;;3.70;99.90;;;;;;5076028;28;20588;-46
2023/03/16 06:46:00;;;;;;;4.10;3.10;;;3.70;99.90;;;;;;5075745;28;20190;-48
2023/03/16 06:48:25;;;;;;;4.20;2.60;;;3.70;99.90;;;;;;5075789;28;20711;-46
2023/03/16 06:50:51;;;;;;;8.83;3.07;;;3.80;99.90;;;;;;5075618;28;20271;-47
2023/03/16 06:53:17;;;;;;;7.47;3.30;;;3.80;99.90;;;;;;5075767;28;20651;-48
2023/03/16 06:55:42;;;;;;;5.87;3.13;;;3.90;99.90;;;;;;5075623;28;20187;-49
2023/03/16 06:58:08;;;;;;;10.83;3.17;;;3.90;99.90;;;;;;5075550;28;20602;-46
2023/03/16 07:00:33;;;;;;;11.60;3.37;;;4.00;99.90;;;;;;5075465;28;20192;-47
2023/03/16 07:03:00;;;;;;;7.47;3.10;;;4.00;99.90;;;;;;5074280;28;20179;-47
2023/03/16 07:05:26;;;;;;;5.87;2.87;;;4.10;99.90;;;;;;5075343;28;20184;-46
2023/03/16 07:07:53;;;;;;;9.73;3.13;;;4.10;99.90;;;;;;5075642;28;20182;-47
2023/03/16 07:10:19;;;;;;;4.47;3.10;;;4.20;99.90;;;;;;5075497;28;20230;-49
2023/03/16 07:12:45;;;;;;;4.43;2.97;;;4.30;99.90;;;;;;5075615;28;20175;-46
2023/03/16 07:15:12;;;;;;;7.73;3.53;;;4.30;99.90;;;;;;5074389;28;20175;-47
2023/03/16 07:17:37;;;;;;;3.70;2.70;;;4.50;99.90;;;;;;5075137;28;20195;-47
2023/03/16 07:20:04;;;;;;;4.00;2.87;;;4.60;99.90;;;;;;5075417;28;20182;-47
2023/03/16 07:22:31;;;;;;;6.93;2.97;;;4.60;99.90;;;;;;5075477;28;20267;-49
2023/03/16 07:24:57;;;;;;;4.90;2.87;;;4.70;99.90;;;;;;5075268;28;20172;-49
2023/03/16 07:27:23;;;;;;;3.53;2.60;;;4.70;99.90;;;;;;5075198;28;20172;-47
2023/03/16 07:29:51;;;;;;;3.77;2.87;;;4.80;99.90;;;;;;5074971;28;20180;-48
2023/03/16 07:32:17;;;;;;;2.97;2.17;;;4.80;99.90;;;;;;5075117;28;20222;-48
2023/03/16 07:34:42;;;;;;;3.70;2.90;;;4.90;99.90;;;;;;5075095;28;20249;-48
2023/03/16 07:37:08;;;;;;;6.80;3.20;;;4.90;99.90;;;;;;5074660;28;20203;-48
2023/03/16 07:39:35;;;;;;;5.40;2.97;;;4.90;99.90;;;;;;5074761;28;20167;-51
2023/03/16 07:42:00;;;;;;;5.00;3.00;;;4.90;99.90;;;;;;5074651;28;20567;-49
2023/03/16 07:44:26;;;;;;;4.90;3.30;;;5.00;99.90;;;;;;5074903;28;20176;-50
2023/03/16 07:46:52;;;;;;;10.77;3.00;;;5.00;99.90;;;;;;5074607;28;20172;-50
2023/03/16 07:49:18;;;;;;;6.43;3.07;;;5.00;99.90;;;;;;5074810;28;20183;-48
2023/03/16 07:51:44;;;;;;;3.40;2.57;;;5.10;99.90;;;;;;5074380;28;20254;-50
2023/03/16 07:54:10;;;;;;;3.63;2.73;;;5.10;99.90;;;;;;5074628;28;20599;-45
2023/03/16 07:56:35;;;;;;;4.73;3.10;;;5.10;99.90;;;;;;5074320;28;20305;-45
2023/03/16 07:59:02;;;;;;;3.73;3.00;;;5.20;99.90;;;;;;5074634;28;20182;-45
2023/03/16 08:01:27;;;;;;;7.13;3.70;;;5.20;99.90;;;;;;5074473;28;20254;-45
2023/03/16 08:03:53;;;;;;;5.23;3.30;;;5.30;99.90;;;;;;5073431;28;20179;-45
2023/03/16 08:06:20;;;;;;;4.77;3.20;;;5.30;99.90;;;;;;5074228;28;20173;-47
2023/03/16 08:08:46;;;;;;;6.63;2.80;;;5.40;99.90;;;;;;5074154;28;20584;-46
2023/03/16 08:11:12;;;;;;;3.80;1.83;;;5.40;99.90;;;;;;5074055;28;20188;-45
2023/03/16 08:13:38;;;;;;;7.37;3.70;;;5.50;99.90;;;;;;5074067;28;20221;-46
2023/03/16 08:16:09;;;;;;;6.83;3.40;;;5.50;99.90;;;;;;5074014;28;20254;-46
2023/03/16 08:18:35;;;;;;;12.30;3.53;;;5.60;99.90;;;;;;5074191;28;20562;-46
2023/03/16 08:21:01;;;;;;;4.87;3.43;;;5.70;99.90;;;;;;5073842;28;20190;-44
2023/03/16 08:23:28;;;;;;;5.57;3.47;;;5.70;99.90;;;;;;5074470;28;20315;-46
2023/03/16 08:25:55;;;;;;;4.33;3.20;;;5.70;99.90;;;;;;5073999;28;20204;-46
2023/03/16 08:28:21;;;;;;;5.90;3.03;;;5.80;99.90;;;;;;5074007;28;20666;-45
2023/03/16 08:30:49;;;;;;;10.73;3.50;;;5.80;99.90;;;;;;5073756;28;20281;-47
2023/03/16 08:33:16;;;;;;;6.73;2.60;;;5.80;99.90;;;;;;5073719;28;20182;-45
2023/03/16 08:35:43;;;;;;;4.43;3.07;;;5.90;99.90;;;;;;5073569;28;20668;-46
2023/03/16 08:38:10;;;;;;;3.70;2.20;;;5.90;99.90;;;;;;5073768;28;20187;-46
2023/03/16 08:40:36;;;;;;;6.07;3.17;;;6.00;99.90;;;;;;5073511;28;20209;-48
2023/03/16 08:43:03;;;;;;;7.70;2.83;;;6.00;99.90;;;;;;5073658;28;20205;-46
2023/03/16 08:45:29;;;;;;;4.07;2.83;;;6.10;99.90;;;;;;5073556;28;20252;-45
2023/03/16 08:47:54;;;;;;;5.20;2.53;;;6.10;99.90;;;;;;5073517;28;20263;-47
2023/03/16 08:50:21;;;;;;;4.00;2.80;;;6.30;99.90;;;;;;5074018;28;20199;-46
2023/03/16 08:52:47;;;;;;;7.43;2.83;;;6.40;99.90;;;;;;5073477;28;20540;-44
2023/03/16 08:55:14;;;;;;;7.03;3.00;;;6.50;99.90;;;;;;5073470;28;20185;-45
2023/03/16 08:57:40;;;;;;;2.43;1.43;;;6.60;99.90;;;;;;5073917;28;20228;-47
2023/03/16 09:00:13;;;;;;;4.30;2.73;;;6.70;99.90;;;;;;5073341;28;20202;-46
2023/03/16 09:02:40;;;;;;;2.83;2.20;;;6.70;99.90;;;;;;5073669;28;20215;-45
2023/03/16 09:05:08;;;;;;;3.90;2.13;;;6.80;99.90;;;;;;5073404;28;20202;-47
2023/03/16 09:07:35;;;;;;;4.13;2.60;;;6.80;99.90;;;;;;5073643;28;20200;-45
2023/03/16 09:10:04;;;;;;;2.70;2.20;;;6.80;99.90;;;;;;5073515;28;20193;-46
2023/03/16 09:12:30;;;;;;;2.37;2.10;;;6.80;99.90;;;;;;5073522;28;20206;-45
2023/03/16 09:14:55;;;;;;;3.03;1.77;;;6.80;99.90;;;;;;5073257;28;20189;-45
2023/03/16 09:17:21;;;;;;;3.57;2.33;;;7.00;99.90;;;;;;5073403;28;20523;-47
2023/03/16 09:19:47;;;;;;;2.50;1.80;;;7.00;99.90;;;;;;5073212;28;20176;-45
2023/03/16 09:22:12;;;;;;;1.50;0.93;;;7.00;99.90;;;;;;5073178;28;20202;-48
2023/03/16 09:24:38;;;;;;;6.97;3.00;;;7.10;99.90;;;;;;5073711;28;20182;-46
2023/03/16 09:27:04;;;;;;;2.83;2.00;;;7.10;99.90;;;;;;5073474;28;20631;-46
2023/03/16 09:29:30;;;;;;;2.23;1.60;;;7.20;99.90;;;;;;5071845;28;20195;-46
2023/03/16 09:31:56;;;;;;;3.20;2.27;;;7.20;99.90;;;;;;5073069;28;20675;-44
2023/03/16 09:34:21;;;;;;;2.73;2.10;;;7.20;99.90;;;;;;5073102;28;20175;-45
2023/03/16 09:36:47;;;;;;;3.80;2.30;;;7.30;99.90;;;;;;5073222;28;20269;-46
2023/03/16 09:39:13;;;;;;;3.83;2.13;;;7.30;99.90;;;;;;5077015;28;20224;-49
2023/03/16 09:41:56;;;;;;;4.70;3.07;;;7.30;99.90;;;;;;5077278;28;20202;-48
2023/03/16 09:44:56;;;;;;;3.30;2.13;;;7.40;99.90;;;;;;5077569;28;20152;-45
2023/03/16 09:47:26;;;;;;;4.27;2.30;;;7.40;99.90;;;;;;5076815;28;20266;-45
2023/03/16 09:49:55;;;;;;;7.10;2.50;;;7.50;99.90;;;;;;5076888;28;20262;-47
2023/03/16 09:52:50;;;;;;;2.87;1.97;;;7.60;99.90;;;;;;5077107;28;20183;-47
2023/03/16 09:55:35;;;;;;;2.40;1.43;;;7.70;99.90;;;;;;5077072;28;20174;-47
2023/03/16 09:58:03;;;;;;;2.73;1.80;;;7.70;99.90;;;;;;5076967;28;20253;-46
2023/03/16 10:00:36;;;;;;;6.10;1.63;;;7.80;99.90;;;;;;5076533;28;20223;-47
2023/03/16 10:03:37;;;;;;;2.73;1.63;;;8.00;99.90;;;;;;5076904;28;20171;-46
2023/03/16 10:06:08;;;;;;;1.80;1.60;;;8.10;99.90;;;;;;5076781;28;20246;-47
2023/03/16 10:08:44;;;;;;;11.07;2.30;;;8.40;99.90;;;;;;5076445;28;20168;-48
2023/03/16 10:11:28;;;;;;;4.17;2.10;;;8.50;99.90;;;;;;5076704;28;20191;-46
2023/03/16 10:14:24;;;;;;;3.10;1.57;;;8.60;99.90;;;;;;5077200;28;20199;-49
2023/03/16 10:17:05;;;;;;;3.83;1.63;;;8.70;99.90;;;;;;5076572;28;20238;-46
2023/03/16 10:19:37;;;;;;;3.47;1.53;;;8.80;99.90;;;;;;5076619;28;20175;-45
2023/03/16 10:22:25;;;;;;;5.50;2.40;;;8.80;99.90;;;;;;5076539;28;20568;-45
2023/03/16 10:25:13;;;;;;;2.07;1.47;;;8.90;99.90;;;;;;5076490;28;20199;-46
2023/03/16 10:27:45;;;;;;;4.97;2.50;;;9.00;99.90;;;;;;5076749;28;20302;-44
2023/03/16 10:30:18;;;;;;;3.80;2.30;;;9.10;99.90;;;;;;5076301;28;20174;-45
2023/03/16 10:32:45;;;;;;;5.20;2.50;;;9.20;99.90;;;;;;5076623;28;20167;-45
2023/03/16 10:35:17;;;;;;;6.60;2.40;;;9.30;99.90;;;;;;5076031;28;20203;-44
2023/03/16 10:37:45;;;;;;;6.20;2.60;;;9.40;99.90;;;;;;5074628;28;20705;-47
2023/03/16 10:40:11;;;;;;;6.47;3.53;;;9.50;99.90;;;;;;5076111;28;20546;-47
2023/03/16 10:42:38;;;;;;;3.17;2.00;;;9.60;99.90;;;;;;5076426;28;20203;-45
2023/03/16 10:45:04;;;;;;;4.43;2.07;;;9.70;99.90;;;;;;5075810;28;20171;-45
2023/03/16 10:47:32;;;;;;;2.10;1.87;;;9.90;99.90;;;;;;5076039;28;20183;-46
2023/03/16 10:50:10;;;;;;;2.77;1.70;;;9.90;99.90;;;;;;5074301;28;20190;-44
2023/03/16 10:53:02;;;;;;;5.20;2.50;;;10.00;99.90;;;;;;5076019;28;20179;-45
2023/03/16 10:55:32;;;;;;;5.13;2.20;;;10.20;99.90;;;;;;5073504;28;20287;-46
2023/03/16 10:57:58;;;;;;;5.90;2.40;;;10.20;99.90;;;;;;5075766;28;20199;-45
2023/03/16 11:00:29;;;;;;;5.00;1.80;;;10.30;99.90;;;;;;5075739;28;20207;-48
2023/03/16 11:02:58;;;;;;;3.23;2.10;;;10.30;99.90;;;;;;5075787;28;20691;-45
2023/03/16 11:05:29;;;;;;;5.73;2.50;;;10.50;99.90;;;;;;5075693;28;20229;-45
2023/03/16 11:08:09;;;;;;;3.20;2.27;;;10.50;99.90;;;;;;5075364;28;20172;-45
2023/03/16 11:10:38;;;;;;;2.43;2.10;;;10.60;99.90;;;;;;5075707;28;20667;-47
2023/03/16 11:13:17;;;;;;;4.23;2.47;;;10.70;99.90;;;;;;5075556;28;20548;-46
2023/03/16 11:16:15;;;;;;;2.10;1.90;;;10.80;99.90;;;;;;5075260;28;20179;-44
2023/03/16 11:18:44;;;;;;;3.10;2.03;;;10.80;99.90;;;;;;5055892;28;20263;-45
2023/03/16 11:21:53;;;;;;;5.60;2.17;;;10.90;99.90;;;;;;5075133;28;20659;-46
2023/03/16 11:24:36;;;;;;;2.07;1.60;;;11.00;99.90;;;;;;5066499;28;20194;-46
2023/03/16 11:27:07;;;;;;;2.07;1.70;;;11.00;99.90;;;;;;5075702;28;20172;-45
2023/03/16 11:29:51;;;;;;;3.53;2.10;;;11.20;99.90;;;;;;5075496;28;20174;-45
2023/03/16 11:32:21;;;;;;;2.93;1.87;;;11.30;99.90;;;;;;5075100;28;20316;-44
2023/03/16 11:34:47;;;;;;;4.40;1.80;;;11.50;99.90;;;;;;5074922;28;20180;-46
2023/03/16 11:37:28;;;;;;;2.50;1.57;;;11.70;99.90;;;;;;5074820;28;20284;-45
2023/03/16 11:40:27;;;;;;;2.63;1.80;;;11.80;99.90;;;;;;5074952;28;20305;-44
2023/03/16 11:42:56;;;;;;;1.93;0.90;;;11.90;99.90;;;;;;5075117;28;20191;-45
2023/03/16 11:45:41;;;;;;;3.47;1.30;;;12.00;99.90;;;;;;5074758;28;20542;-46
2023/03/16 11:48:48;;;;;;;4.03;1.17;;;12.20;99.90;;;;;;5075229;28;20522;-45
2023/03/16 11:51:38;;;;;;;1.83;0.90;;;12.50;99.90;;;;;;5054853;28;20211;-46
2023/03/16 11:54:43;;;;;;;4.70;1.30;;;12.70;99.90;;;;;;5075187;28;20199;-43
2023/03/16 11:57:27;;;;;;;4.23;1.47;;;12.70;99.90;;;;;;5074520;28;20198;-45
2023/03/16 12:00:24;;;;;;;1.47;1.00;;;12.80;99.90;;;;;;5074273;28;20164;-47
2023/03/16 12:03:00;;;;;;;2.17;1.30;;;12.80;99.90;;;;;;5074724;28;20237;-44
2023/03/16 12:05:33;;;;;;;2.73;1.30;;;13.00;99.90;;;;;;5073484;28;20596;-47
2023/03/16 12:08:30;;;;;;;4.67;1.30;;;13.10;99.90;;;;;;5074876;28;20255;-44
2023/03/16 12:11:11;;;;;;;3.40;1.20;;;13.20;99.90;;;;;;5074403;28;20207;-44
2023/03/16 12:13:46;;;;;;;2.20;0.90;;;13.20;99.90;;;;;;5072955;28;20256;-47
2023/03/16 12:16:21;;;;;;;4.10;1.30;;;13.20;99.90;;;;;;5074232;28;20631;-45
2023/03/16 12:18:54;;;;;;;2.90;1.07;;;13.20;99.90;;;;;;5074279;28;20252;-47
2023/03/16 12:21:36;;;;;;;1.87;1.00;;;13.30;99.90;;;;;;5074235;28;20282;-47
2023/03/16 12:24:06;;;;;;;2.17;1.07;;;13.30;99.90;;;;;;5074254;28;20186;-45
2023/03/16 12:26:37;;;;;;;3.80;1.20;;;13.30;99.90;;;;;;5074176;28;20275;-44
2023/03/16 12:29:12;;;;;;;2.27;0.80;;;13.40;99.90;;;;;;5074208;28;20164;-47
2023/03/16 12:31:45;;;;;;;1.77;0.90;;;13.50;99.90;;;;;;5073930;28;20191;-46
2023/03/16 12:34:37;;;;;;;1.67;0.70;;;13.60;99.90;;;;;;5074068;28;20215;-46
2023/03/16 12:37:40;;;;;;;2.73;1.17;;;13.60;99.90;;;;;;5073716;28;20269;-45
2023/03/16 12:40:45;;;;;;;1.53;1.00;;;13.70;99.90;;;;;;5061016;28;20294;-47
2023/03/16 12:43:41;;;;;;;2.13;1.00;;;13.80;99.90;;;;;;5073660;28;20178;-47
2023/03/16 12:46:10;;;;;;;1.73;0.77;;;13.90;99.90;;;;;;5073049;28;20188;-45
2023/03/16 12:48:39;;;;;;;1.20;0.70;;;13.90;99.90;;;;;;5073933;28;20186;-45
2023/03/16 12:51:05;;;;;;;2.37;1.30;;;14.00;99.90;;;;;;5073494;28;20702;-46
2023/03/16 12:53:50;;;;;;;3.03;1.00;;;14.00;99.90;;;;;;5074101;28;20187;-46
2023/03/16 12:56:37;;;;;;;1.80;0.90;;;14.10;99.90;;;;;;5073809;28;20171;-49
2023/03/16 12:59:06;;;;;;;1.00;0.77;;;14.10;99.90;;;;;;5066096;28;20207;-48
2023/03/16 13:01:42;;;;;;;0.97;0.80;;;14.20;99.90;;;;;;5073455;28;20285;-49
2023/03/16 13:04:11;;;;;;;0.87;0.73;;;14.30;99.90;;;;;;5073418;28;20692;-49
2023/03/16 13:06:42;;;;;;;1.17;0.70;;;14.30;99.90;;;;;;5073494;28;20176;-48
2023/03/16 13:09:12;;;;;;;1.00;0.90;;;14.30;99.90;;;;;;5073646;28;20180;-49